Time;durP1;ratioP1;P1;durP2;ratioP2;P2;SDS_P1;SDS_P2;PMS_P1;PMS_P2;Temp;Humidity;BMP_temperature;BMP_pressure;BME280_temperature;BME280_humidity;BME280_pressure;Samples;Min_cycle;Max_cycle;Signal;HPM_P1;HPM_P2
2022/09/24 00:01:41;;;;;;;13.82;7.88;;;10.00;70.50;;;;;;4183315;28;20028;-85
2022/09/24 00:03:45;;;;;;;12.75;8.38;;;10.00;70.50;;;;;;4188890;28;20095;-85
2022/09/24 00:05:48;;;;;;;11.50;7.47;;;10.10;70.60;;;;;;4169205;28;20124;-85
2022/09/24 00:07:48;;;;;;;14.18;8.90;;;10.10;70.70;;;;;;4185137;28;20033;-84
2022/09/24 00:09:49;;;;;;;13.15;8.55;;;10.00;70.60;;;;;;4188511;28;20089;-84
2022/09/24 00:11:52;;;;;;;15.52;8.35;;;10.00;70.60;;;;;;4175056;28;20021;-85
2022/09/24 00:13:54;;;;;;;16.35;8.73;;;10.00;70.60;;;;;;4188446;28;20024;-85
2022/09/24 00:15:55;;;;;;;13.50;8.45;;;10.00;70.50;;;;;;4170116;28;20535;-84
2022/09/24 00:17:56;;;;;;;15.57;8.57;;;10.00;71.30;;;;;;4185058;28;20032;-85
2022/09/24 00:19:57;;;;;;;17.75;8.80;;;10.00;70.60;;;;;;4189540;28;20036;-85
2022/09/24 00:21:57;;;;;;;15.02;8.80;;;10.00;70.60;;;;;;4187292;28;20058;-84
2022/09/24 00:24:01;;;;;;;13.70;8.13;;;10.00;70.70;;;;;;4186757;28;20060;-85
2022/09/24 00:28:20;;;;;;;13.63;8.82;;;10.00;71.00;;;;;;4187155;28;20096;-86
2022/09/24 00:30:21;;;;;;;14.20;8.38;;;10.00;71.00;;;;;;4184257;28;20025;-86
2022/09/24 00:32:23;;;;;;;14.85;8.95;;;10.00;71.10;;;;;;4188624;28;20103;-86
2022/09/24 00:34:24;;;;;;;15.30;9.43;;;10.00;71.10;;;;;;4188321;28;20105;-86
2022/09/24 00:36:24;;;;;;;15.55;9.55;;;10.00;71.20;;;;;;4185095;28;20035;-86
2022/09/24 00:38:25;;;;;;;15.48;9.85;;;10.00;71.40;;;;;;4187282;28;20043;-86
2022/09/24 00:40:31;;;;;;;15.38;8.80;;;10.10;71.50;;;;;;4186388;28;20029;-86
2022/09/24 00:42:32;;;;;;;14.63;9.68;;;10.10;71.60;;;;;;4190229;28;20032;-86
2022/09/24 00:44:44;;;;;;;14.98;9.23;;;10.10;71.60;;;;;;4186037;28;20025;-86
2022/09/24 00:46:45;;;;;;;16.60;9.93;;;10.10;71.90;;;;;;4180805;28;20020;-86
2022/09/24 00:48:47;;;;;;;14.90;9.20;;;10.10;71.80;;;;;;4182659;28;20024;-85
2022/09/24 00:50:48;;;;;;;16.23;9.27;;;10.10;71.90;;;;;;4199625;28;20028;-85
2022/09/24 00:52:57;;;;;;;16.30;9.48;;;10.10;71.90;;;;;;4186936;28;20029;-86
2022/09/24 00:54:59;;;;;;;15.75;10.13;;;10.20;72.10;;;;;;4186869;28;20562;-85
2022/09/24 00:57:00;;;;;;;19.25;10.55;;;10.20;72.00;;;;;;4185360;28;20139;-85
2022/09/24 00:59:03;;;;;;;16.15;10.18;;;10.20;72.00;;;;;;4187135;28;20041;-84
2022/09/24 01:01:06;;;;;;;19.90;9.93;;;10.20;72.10;;;;;;4185413;28;20500;-84
2022/09/24 01:03:11;;;;;;;21.55;10.02;;;10.20;72.10;;;;;;4186768;28;20518;-85
2022/09/24 01:05:12;;;;;;;13.45;9.25;;;10.20;72.20;;;;;;4186850;28;20116;-85
2022/09/24 01:07:13;;;;;;;21.88;12.57;;;10.20;72.20;;;;;;4185686;28;20039;-86
2022/09/24 01:09:15;;;;;;;18.85;11.70;;;10.30;72.30;;;;;;4190248;28;20043;-85
2022/09/24 01:11:18;;;;;;;17.55;10.80;;;10.30;72.30;;;;;;4186834;28;20020;-86
2022/09/24 01:13:31;;;;;;;;;;;10.30;72.40;;;;;;4185354;28;20364;-85
2022/09/24 01:15:41;;;;;;;13.13;8.68;;;10.30;73.20;;;;;;4185621;28;19995;-85
2022/09/24 01:17:59;;;;;;;20.70;10.55;;;10.30;72.20;;;;;;4185350;28;20028;-85
2022/09/24 01:20:33;;;;;;;19.65;11.25;;;10.30;72.40;;;;;;4185385;28;20462;-85
2022/09/24 01:22:42;;;;;;;18.83;10.23;;;10.30;72.30;;;;;;4188385;28;20064;-84
2022/09/24 01:25:25;;;;;;;15.95;9.65;;;10.30;72.20;;;;;;4189717;28;20029;-85
2022/09/24 01:27:32;;;;;;;20.85;11.27;;;10.30;72.40;;;;;;4186287;28;20246;-85
2022/09/24 01:29:53;;;;;;;18.38;10.65;;;10.40;73.10;;;;;;4189993;28;20079;-85
2022/09/24 01:32:08;;;;;;;17.42;9.23;;;10.40;72.30;;;;;;4187366;28;20025;-85
2022/09/24 01:34:11;;;;;;;17.25;9.38;;;10.30;72.40;;;;;;4187958;28;20107;-85
2022/09/24 01:36:13;;;;;;;14.63;10.10;;;10.40;72.30;;;;;;4186927;28;20023;-85
2022/09/24 01:38:25;;;;;;;17.92;10.73;;;10.30;72.30;;;;;;4187412;28;20093;-85
2022/09/24 01:40:27;;;;;;;17.17;10.02;;;10.30;72.40;;;;;;4190813;28;20117;-85
2022/09/24 01:42:30;;;;;;;17.67;9.10;;;10.40;72.50;;;;;;4206353;28;20032;-86
2022/09/24 01:44:30;;;;;;;15.52;10.82;;;10.30;72.50;;;;;;4204384;28;20149;-84
2022/09/24 01:46:31;;;;;;;15.60;10.05;;;10.40;72.60;;;;;;4187302;28;20032;-84
2022/09/24 01:48:36;;;;;;;17.95;10.77;;;10.40;72.60;;;;;;4190878;28;20028;-83
2022/09/24 01:51:08;;;;;;;19.02;11.07;;;10.40;72.70;;;;;;4184802;28;20487;-83
2022/09/24 01:53:24;;;;;;;14.50;9.25;;;10.40;72.90;;;;;;4191756;28;20371;-83
2022/09/24 01:55:30;;;;;;;15.60;10.43;;;10.40;72.80;;;;;;4192316;28;20029;-84
2022/09/24 01:57:38;;;;;;;17.40;10.73;;;10.40;72.70;;;;;;4185402;28;20167;-83
2022/09/24 01:59:49;;;;;;;19.98;10.77;;;10.40;72.80;;;;;;4188085;28;20094;-83
2022/09/24 02:02:03;;;;;;;21.02;10.85;;;10.50;72.80;;;;;;4191403;28;20488;-84
2022/09/24 02:04:18;;;;;;;16.75;10.93;;;10.50;72.90;;;;;;4188344;28;20293;-83
2022/09/24 02:06:30;;;;;;;16.15;10.15;;;10.40;72.70;;;;;;4189211;28;20052;-83
2022/09/24 02:08:44;;;;;;;16.70;10.43;;;10.40;72.80;;;;;;4199471;28;20103;-83
2022/09/24 02:11:05;;;;;;;16.15;10.35;;;10.40;72.80;;;;;;4203620;28;20033;-84
2022/09/24 02:13:12;;;;;;;15.00;10.23;;;10.40;73.00;;;;;;4202558;28;20123;-84
2022/09/24 02:15:33;;;;;;;15.88;9.82;;;10.40;72.80;;;;;;4207198;28;20092;-84
2022/09/24 02:17:37;;;;;;;15.77;10.25;;;10.50;73.00;;;;;;4205219;28;20024;-85
2022/09/24 02:19:41;;;;;;;13.88;9.13;;;10.50;72.80;;;;;;4206456;28;20021;-84
2022/09/24 02:21:42;;;;;;;15.73;10.80;;;10.40;72.80;;;;;;4190706;28;20060;-84
2022/09/24 02:23:49;;;;;;;17.52;10.63;;;10.50;72.80;;;;;;4191542;28;20024;-85
2022/09/24 02:26:01;;;;;;;17.58;11.23;;;10.50;72.80;;;;;;4193156;28;20032;-84
2022/09/24 02:28:02;;;;;;;17.55;11.38;;;10.40;72.80;;;;;;4192709;28;20025;-84
2022/09/24 02:30:04;;;;;;;15.27;9.85;;;10.40;72.70;;;;;;4206336;28;20514;-84
2022/09/24 02:32:09;;;;;;;15.37;11.10;;;10.50;72.80;;;;;;4184154;28;20032;-84
2022/09/24 02:34:19;;;;;;;17.40;11.30;;;10.40;72.80;;;;;;4190458;28;20032;-84
2022/09/24 02:36:23;;;;;;;22.98;12.20;;;10.50;72.80;;;;;;4186860;28;20025;-84
2022/09/24 02:38:24;;;;;;;17.33;11.15;;;10.50;72.80;;;;;;4190026;28;20454;-85
2022/09/24 02:40:25;;;;;;;17.60;10.70;;;10.50;73.60;;;;;;4191024;28;20040;-84
2022/09/24 02:42:26;;;;;;;17.30;11.52;;;10.50;72.90;;;;;;4191785;28;20122;-84
2022/09/24 02:44:27;;;;;;;17.13;11.10;;;10.50;73.00;;;;;;4193362;28;20025;-84
2022/09/24 02:46:28;;;;;;;21.02;11.68;;;10.50;73.00;;;;;;4189048;28;20031;-84
2022/09/24 02:48:29;;;;;;;18.60;11.00;;;10.50;72.90;;;;;;4190893;28;20511;-84
2022/09/24 02:50:29;;;;;;;17.65;11.77;;;10.50;72.90;;;;;;4186974;28;20037;-84
2022/09/24 02:52:30;;;;;;;18.77;11.38;;;10.50;73.00;;;;;;4188979;28;20492;-85
2022/09/24 02:54:30;;;;;;;23.08;11.80;;;10.40;72.90;;;;;;4187446;28;20113;-84
2022/09/24 02:56:32;;;;;;;21.20;12.98;;;10.50;72.90;;;;;;4189312;28;20056;-85
2022/09/24 02:58:33;;;;;;;19.10;12.45;;;10.50;73.00;;;;;;4187780;28;20059;-83
2022/09/24 03:00:34;;;;;;;19.95;12.00;;;10.50;72.90;;;;;;4189879;28;20051;-85
2022/09/24 03:02:34;;;;;;;16.67;11.35;;;10.50;73.00;;;;;;4187716;28;20024;-84
2022/09/24 03:04:35;;;;;;;17.70;11.98;;;10.50;73.00;;;;;;4174433;28;20106;-84
2022/09/24 03:06:36;;;;;;;16.63;10.10;;;10.50;73.00;;;;;;4201890;28;20028;-84
2022/09/24 03:08:36;;;;;;;15.65;10.25;;;10.40;73.00;;;;;;4202687;28;20522;-84
2022/09/24 03:10:38;;;;;;;18.45;10.75;;;10.60;73.10;;;;;;4188110;28;20029;-84
2022/09/24 03:12:41;;;;;;;16.17;10.70;;;10.50;73.20;;;;;;4189396;28;20028;-85
2022/09/24 03:14:41;;;;;;;17.40;11.55;;;10.50;73.10;;;;;;4188817;28;20059;-85
2022/09/24 03:16:42;;;;;;;20.63;12.40;;;10.50;73.10;;;;;;4185327;28;20032;-84
2022/09/24 03:18:44;;;;;;;21.92;11.43;;;10.50;73.20;;;;;;4187076;28;20123;-85
2022/09/24 03:21:16;;;;;;;19.75;11.73;;;10.40;73.00;;;;;;4186331;28;20024;-84
2022/09/24 03:23:16;;;;;;;21.98;12.77;;;10.50;73.40;;;;;;4171234;28;20060;-84
2022/09/24 03:25:18;;;;;;;18.83;11.38;;;10.50;73.10;;;;;;4189161;28;20495;-85
2022/09/24 03:27:19;;;;;;;17.25;11.55;;;10.60;73.10;;;;;;4169709;28;20029;-84
2022/09/24 03:30:58;;;;;;;17.83;10.60;;;10.50;73.10;;;;;;4201174;28;20032;-84
2022/09/24 03:31:41;;;;;;;18.80;11.57;;;10.50;73.00;;;;;;4188607;28;20040;-84
2022/09/24 03:33:44;;;;;;;17.70;11.73;;;10.50;73.80;;;;;;4168729;28;20029;-85
2022/09/24 03:35:45;;;;;;;19.25;11.73;;;10.50;73.00;;;;;;4185570;28;20100;-84
2022/09/24 03:37:46;;;;;;;17.10;11.77;;;10.50;73.10;;;;;;4191240;28;20039;-84
2022/09/24 03:39:46;;;;;;;22.63;12.25;;;10.50;73.10;;;;;;4187346;28;20024;-84
2022/09/24 03:41:47;;;;;;;20.52;11.85;;;10.50;73.20;;;;;;4169989;28;20056;-84
2022/09/24 03:43:48;;;;;;;21.02;12.18;;;10.50;73.20;;;;;;4185986;28;20508;-84
2022/09/24 03:45:49;;;;;;;21.10;11.55;;;10.50;73.20;;;;;;4185415;28;20024;-85
2022/09/24 03:47:50;;;;;;;20.85;12.55;;;10.60;73.30;;;;;;4169584;28;20039;-85
2022/09/24 03:49:52;;;;;;;21.88;13.05;;;10.50;73.10;;;;;;4183881;28;20032;-86
2022/09/24 03:51:52;;;;;;;22.00;11.85;;;10.50;73.20;;;;;;4188305;28;20143;-85
2022/09/24 03:53:53;;;;;;;18.08;12.18;;;10.50;73.20;;;;;;4185080;28;20056;-85
2022/09/24 03:55:56;;;;;;;17.13;12.23;;;10.40;73.10;;;;;;4169282;28;20094;-85
2022/09/24 03:57:56;;;;;;;19.98;12.52;;;10.50;73.20;;;;;;4186221;28;20036;-85
2022/09/24 03:59:58;;;;;;;25.33;12.93;;;10.40;73.20;;;;;;4187386;28;20028;-85
2022/09/24 04:01:59;;;;;;;21.35;12.93;;;10.50;73.40;;;;;;4188445;28;20032;-85
2022/09/24 04:04:02;;;;;;;19.58;11.43;;;10.40;73.30;;;;;;4186645;28;20043;-85
2022/09/24 04:06:04;;;;;;;19.70;11.57;;;10.40;73.40;;;;;;4188944;28;20056;-85
2022/09/24 04:08:05;;;;;;;23.38;12.90;;;10.40;73.40;;;;;;4188770;28;20565;-85
2022/09/24 04:10:06;;;;;;;21.75;13.20;;;10.40;73.50;;;;;;4190026;28;20111;-85
2022/09/24 04:12:28;;;;;;;17.90;12.63;;;10.40;73.50;;;;;;4192036;28;20078;-85
2022/09/24 04:14:48;;;;;;;25.33;13.13;;;10.50;73.40;;;;;;4190029;28;20090;-85
2022/09/24 04:17:09;;;;;;;18.73;12.60;;;10.50;73.50;;;;;;4189180;28;20044;-85
2022/09/24 04:19:30;;;;;;;19.95;12.93;;;10.50;73.50;;;;;;4184353;28;20039;-85
2022/09/24 04:21:51;;;;;;;21.52;12.30;;;10.50;73.50;;;;;;4183203;28;20036;-85
2022/09/24 04:24:12;;;;;;;24.67;12.48;;;10.40;73.50;;;;;;4188087;28;20059;-85
2022/09/24 04:26:33;;;;;;;16.95;11.63;;;10.40;73.50;;;;;;4191710;28;20036;-85
2022/09/24 04:28:54;;;;;;;20.73;12.68;;;10.60;73.70;;;;;;4190000;28;20502;-85
2022/09/24 04:31:14;;;;;;;22.73;13.48;;;10.60;73.70;;;;;;4189413;28;20043;-84
2022/09/24 04:33:35;;;;;;;23.48;14.30;;;10.50;73.70;;;;;;4191325;28;20028;-85
2022/09/24 04:35:56;;;;;;;22.77;13.75;;;10.50;73.70;;;;;;4192185;28;20024;-85
2022/09/24 04:38:18;;;;;;;19.65;13.07;;;10.60;73.70;;;;;;4187768;28;20055;-85
2022/09/24 04:40:38;;;;;;;19.23;12.65;;;10.60;73.70;;;;;;4190367;28;20028;-84
2022/09/24 04:42:59;;;;;;;27.55;14.57;;;10.50;73.70;;;;;;4189581;28;20032;-84
2022/09/24 04:45:23;;;;;;;21.55;13.48;;;10.50;73.70;;;;;;4188868;28;20389;-85
2022/09/24 04:47:56;;;;;;;22.88;13.13;;;10.60;73.80;;;;;;4186698;28;20094;-85
2022/09/24 04:50:18;;;;;;;25.30;13.95;;;10.50;73.70;;;;;;4187625;28;20032;-85
2022/09/24 04:52:39;;;;;;;24.33;14.63;;;10.50;73.70;;;;;;4198457;28;20636;-85
2022/09/24 04:54:59;;;;;;;23.73;14.60;;;10.50;73.70;;;;;;4191226;28;20036;-84
2022/09/24 04:57:21;;;;;;;23.23;14.40;;;10.50;73.70;;;;;;4188158;28;20036;-84
2022/09/24 04:59:43;;;;;;;23.00;13.88;;;10.50;73.80;;;;;;4190485;28;20613;-85
2022/09/24 05:02:06;;;;;;;24.17;14.63;;;10.50;74.40;;;;;;4188966;28;20055;-85
2022/09/24 05:04:27;;;;;;;29.42;17.30;;;10.50;73.80;;;;;;4189427;28;20036;-85
2022/09/24 05:06:48;;;;;;;27.88;16.60;;;10.60;73.80;;;;;;4190059;28;20091;-85
2022/09/24 05:09:08;;;;;;;27.90;17.27;;;10.50;73.80;;;;;;4190446;28;20028;-85
2022/09/24 05:11:29;;;;;;;23.52;14.70;;;10.60;73.90;;;;;;4190719;28;20043;-86
2022/09/24 05:13:50;;;;;;;28.33;16.00;;;10.50;74.00;;;;;;4188529;28;20955;-85
2022/09/24 05:16:10;;;;;;;26.10;16.15;;;10.50;74.10;;;;;;4190777;28;20125;-85
2022/09/24 05:18:31;;;;;;;25.02;16.52;;;10.50;74.00;;;;;;4190301;28;20420;-86
2022/09/24 05:20:52;;;;;;;32.00;16.75;;;10.60;74.20;;;;;;4192176;28;20431;-85
2022/09/24 05:23:12;;;;;;;24.77;16.42;;;10.60;74.30;;;;;;4190555;28;20466;-85
2022/09/24 05:27:07;;;;;;;26.25;16.08;;;10.50;74.20;;;;;;4192790;28;20660;-85
2022/09/24 05:28:14;;;;;;;23.70;14.23;;;10.50;74.20;;;;;;4190884;28;20609;-86
2022/09/24 05:30:34;;;;;;;33.63;16.80;;;10.60;74.20;;;;;;4189462;28;20111;-86
2022/09/24 05:32:55;;;;;;;28.40;17.80;;;10.60;74.20;;;;;;4189192;28;20396;-85
2022/09/24 05:35:15;;;;;;;27.00;16.20;;;10.60;74.30;;;;;;4187814;28;20400;-85
2022/09/24 05:37:37;;;;;;;26.60;16.38;;;10.60;74.30;;;;;;4188938;28;20128;-84
2022/09/24 05:40:46;;;;;;;23.67;15.57;;;10.70;74.40;;;;;;4183047;28;20697;-84
2022/09/24 05:42:38;;;;;;;27.15;16.90;;;10.60;74.30;;;;;;4190105;28;20040;-84
2022/09/24 05:44:59;;;;;;;25.95;16.55;;;10.60;74.30;;;;;;4191732;28;20437;-84
2022/09/24 05:47:19;;;;;;;27.58;17.33;;;10.60;74.30;;;;;;4185541;28;20041;-84
2022/09/24 05:49:41;;;;;;;27.60;17.40;;;10.70;74.30;;;;;;4191433;28;20400;-84
2022/09/24 05:51:42;;;;;;;27.23;17.75;;;10.60;74.30;;;;;;4186762;28;20028;-84
2022/09/24 05:53:43;;;;;;;27.27;17.40;;;10.60;74.30;;;;;;4193931;28;20029;-85
2022/09/24 05:55:44;;;;;;;29.13;17.65;;;10.60;74.40;;;;;;4188748;28;20500;-85
2022/09/24 05:57:44;;;;;;;25.85;17.02;;;10.60;74.50;;;;;;4192935;28;20059;-85
2022/09/24 05:59:45;;;;;;;23.75;16.02;;;10.60;74.60;;;;;;4188604;28;20028;-85
2022/09/24 06:01:47;;;;;;;29.80;17.52;;;10.70;74.80;;;;;;4190208;28;20020;-86
2022/09/24 06:03:48;;;;;;;26.85;16.27;;;10.70;74.80;;;;;;4193035;28;20504;-86
2022/09/24 06:05:49;;;;;;;25.95;17.38;;;10.80;75.00;;;;;;4193722;28;20021;-86
2022/09/24 06:07:50;;;;;;;26.45;17.08;;;10.70;75.00;;;;;;4188037;28;20039;-85
2022/09/24 06:09:51;;;;;;;25.35;16.55;;;10.80;75.10;;;;;;4189132;28;20024;-85
2022/09/24 06:11:52;;;;;;;26.38;16.88;;;10.80;75.20;;;;;;4166972;28;20021;-84
2022/09/24 06:13:53;;;;;;;29.70;17.20;;;10.80;75.30;;;;;;4191614;28;20032;-84
2022/09/24 06:16:04;;;;;;;28.83;17.88;;;10.80;75.30;;;;;;4172903;28;20520;-85
2022/09/24 06:18:05;;;;;;;30.38;18.90;;;10.80;75.50;;;;;;4186261;28;20512;-85
2022/09/24 06:20:05;;;;;;;34.78;19.92;;;10.90;75.50;;;;;;4190514;28;20074;-85
2022/09/24 06:22:06;;;;;;;35.63;20.48;;;10.90;75.60;;;;;;4189845;28;20032;-85
2022/09/24 06:24:07;;;;;;;33.08;19.77;;;10.90;75.60;;;;;;4190153;28;20075;-84
2022/09/24 06:26:10;;;;;;;32.20;19.95;;;10.90;75.70;;;;;;4188039;28;20029;-85
2022/09/24 06:28:11;;;;;;;32.05;20.10;;;11.00;75.80;;;;;;4190408;28;20738;-85
2022/09/24 06:30:12;;;;;;;40.75;19.33;;;11.00;76.00;;;;;;4200492;28;20024;-85
2022/09/24 06:32:13;;;;;;;31.08;20.25;;;11.00;76.00;;;;;;4170041;28;20468;-84
2022/09/24 06:34:14;;;;;;;33.90;21.33;;;11.00;76.00;;;;;;4193721;28;20507;-85
2022/09/24 06:36:15;;;;;;;32.45;20.27;;;11.10;76.10;;;;;;4172976;28;20525;-85
2022/09/24 06:38:17;;;;;;;42.75;21.48;;;11.20;76.30;;;;;;4191025;28;20029;-85
2022/09/24 06:40:18;;;;;;;37.50;23.60;;;11.30;76.40;;;;;;4185131;28;20032;-85
2022/09/24 06:42:19;;;;;;;36.97;22.95;;;11.20;76.40;;;;;;4188297;28;20033;-85
2022/09/24 06:44:20;;;;;;;37.13;23.05;;;11.20;76.40;;;;;;4188753;28;20036;-85
2022/09/24 06:46:24;;;;;;;37.08;22.90;;;11.20;76.40;;;;;;4169556;28;20030;-85
2022/09/24 06:48:27;;;;;;;35.03;22.95;;;11.30;76.60;;;;;;4171850;28;20205;-84
2022/09/24 06:50:30;;;;;;;36.75;24.02;;;11.30;76.60;;;;;;4186555;28;20115;-84
2022/09/24 06:52:31;;;;;;;36.75;22.55;;;11.40;76.70;;;;;;4185653;28;20542;-84
2022/09/24 06:54:31;;;;;;;35.92;23.15;;;11.40;76.70;;;;;;4183965;28;20037;-83
2022/09/24 06:56:32;;;;;;;39.05;24.95;;;11.40;76.60;;;;;;4185487;28;20032;-86
2022/09/24 06:58:33;;;;;;;37.03;22.17;;;11.50;76.70;;;;;;4181627;28;20040;-85
2022/09/24 07:00:35;;;;;;;35.38;23.00;;;11.60;76.80;;;;;;4183172;28;20028;-84
2022/09/24 07:02:35;;;;;;;41.15;24.15;;;11.50;76.80;;;;;;4186370;28;20122;-83
2022/09/24 07:04:36;;;;;;;36.03;23.00;;;11.60;76.80;;;;;;4186584;28;20496;-84
2022/09/24 07:08:56;;;;;;;41.17;24.10;;;11.70;76.90;;;;;;4185284;28;20550;-83
2022/09/24 07:10:56;;;;;;;37.92;23.63;;;11.70;76.90;;;;;;4183968;28;20032;-85
2022/09/24 07:12:57;;;;;;;36.90;23.50;;;11.70;76.90;;;;;;4182696;28;20036;-84
2022/09/24 07:14:59;;;;;;;40.65;24.08;;;11.80;76.90;;;;;;4180844;28;20392;-85
2022/09/24 07:16:59;;;;;;;38.55;23.42;;;11.80;77.00;;;;;;4177451;28;20060;-85
2022/09/24 07:19:00;;;;;;;38.42;24.33;;;11.90;77.00;;;;;;4184515;28;20044;-84
2022/09/24 07:21:00;;;;;;;37.13;22.48;;;11.80;76.90;;;;;;4178343;28;20040;-85
2022/09/24 07:23:03;;;;;;;39.38;23.83;;;11.90;77.00;;;;;;4183864;28;20068;-85
2022/09/24 07:25:06;;;;;;;41.60;24.13;;;12.00;77.00;;;;;;4181903;28;20028;-86
2022/09/24 07:27:07;;;;;;;37.47;25.08;;;11.90;76.90;;;;;;4178645;28;20031;-83
2022/09/24 07:29:08;;;;;;;37.75;23.85;;;12.00;76.80;;;;;;4186312;28;20033;-85
2022/09/24 07:31:08;;;;;;;45.50;25.77;;;12.00;76.80;;;;;;4184340;28;20064;-85
2022/09/24 07:33:09;;;;;;;40.70;23.88;;;12.10;76.90;;;;;;4184004;28;20440;-85
2022/09/24 07:35:10;;;;;;;39.97;23.58;;;12.10;76.90;;;;;;4179452;28;20040;-85
2022/09/24 07:37:11;;;;;;;40.25;24.73;;;12.10;76.90;;;;;;4176464;28;20047;-85
2022/09/24 07:39:11;;;;;;;38.53;23.15;;;12.20;77.00;;;;;;4186117;28;20058;-85
2022/09/24 07:41:12;;;;;;;41.30;24.60;;;12.20;77.00;;;;;;4181136;28;20605;-85
2022/09/24 07:43:13;;;;;;;39.90;24.02;;;12.20;77.00;;;;;;4180330;28;20034;-85
2022/09/24 07:45:16;;;;;;;41.30;25.27;;;12.20;77.00;;;;;;4180548;28;20054;-85
2022/09/24 07:47:17;;;;;;;42.33;23.92;;;12.20;77.10;;;;;;4177850;28;20975;-85
2022/09/24 07:49:17;;;;;;;41.88;24.08;;;12.20;77.20;;;;;;4182163;28;20043;-85
2022/09/24 07:51:18;;;;;;;42.97;25.30;;;12.30;77.30;;;;;;4183531;28;20099;-85
2022/09/24 07:53:20;;;;;;;45.30;25.13;;;12.30;77.40;;;;;;4184656;28;20029;-85
2022/09/24 07:55:22;;;;;;;40.40;23.92;;;12.40;77.50;;;;;;4201557;28;20226;-85
2022/09/24 07:57:26;;;;;;;40.67;24.60;;;12.40;77.50;;;;;;4183739;28;20095;-85
2022/09/24 07:59:26;;;;;;;;;;;12.40;77.50;;;;;;4184864;28;21349;-85
2022/09/24 08:01:27;;;;;;;42.10;23.00;;;12.50;78.30;;;;;;4182418;28;19973;-85
2022/09/24 08:03:28;;;;;;;43.47;24.20;;;12.50;77.40;;;;;;4201455;28;20028;-85
2022/09/24 08:05:28;;;;;;;41.40;24.70;;;12.60;77.40;;;;;;4179628;28;20591;-85
2022/09/24 08:07:29;;;;;;;42.17;24.38;;;12.60;77.50;;;;;;4180760;28;20029;-85
2022/09/24 08:09:31;;;;;;;43.65;25.88;;;12.60;77.50;;;;;;4180105;28;20114;-86
2022/09/24 08:11:32;;;;;;;42.80;25.30;;;12.60;77.50;;;;;;4178986;28;20020;-86
2022/09/24 08:13:33;;;;;;;43.15;25.83;;;12.70;77.60;;;;;;4181638;28;20024;-86
2022/09/24 08:15:34;;;;;;;42.47;24.38;;;12.70;77.60;;;;;;4182700;28;20143;-85
2022/09/24 08:17:34;;;;;;;48.53;26.55;;;12.70;77.60;;;;;;4183844;28;20036;-85
2022/09/24 08:19:35;;;;;;;46.78;25.90;;;12.80;78.40;;;;;;4186917;28;20036;-86
2022/09/24 08:21:37;;;;;;;49.10;26.52;;;12.90;77.70;;;;;;4196517;28;20020;-86
2022/09/24 08:23:39;;;;;;;46.90;25.77;;;12.80;77.60;;;;;;4178723;28;20036;-86
2022/09/24 08:25:39;;;;;;;42.97;24.77;;;12.90;77.80;;;;;;4180304;28;20032;-85
2022/09/24 08:27:40;;;;;;;47.58;26.15;;;12.90;77.70;;;;;;4176768;28;20051;-86
2022/09/24 08:29:41;;;;;;;50.75;26.50;;;13.00;77.80;;;;;;4184210;28;20025;-86
2022/09/24 08:31:41;;;;;;;49.88;26.83;;;13.10;78.00;;;;;;4184562;28;20032;-86
2022/09/24 08:33:45;;;;;;;48.78;24.75;;;13.00;77.80;;;;;;4184160;28;20506;-85
2022/09/24 08:35:45;;;;;;;48.08;26.85;;;13.00;77.80;;;;;;4181219;28;20731;-86
2022/09/24 08:37:46;;;;;;;49.90;26.67;;;13.10;77.80;;;;;;4181214;28;20048;-85
2022/09/24 08:39:46;;;;;;;43.17;26.00;;;13.10;77.90;;;;;;4186792;28;20115;-86
2022/09/24 08:42:01;;;;;;;43.20;23.95;;;13.20;78.00;;;;;;4178624;28;20028;-84
2022/09/24 08:44:07;;;;;;;46.40;25.63;;;13.20;78.10;;;;;;4173385;28;20047;-85
2022/09/24 08:48:51;;;;;;;46.15;26.20;;;13.30;78.10;;;;;;4182615;28;20024;-85
2022/09/24 08:50:59;;;;;;;50.17;26.85;;;13.30;77.90;;;;;;4161526;28;20033;-85
2022/09/24 08:53:18;;;;;;;50.45;26.70;;;13.30;78.00;;;;;;4166494;28;20033;-85
2022/09/24 08:55:42;;;;;;;48.17;25.50;;;13.40;78.00;;;;;;4178637;28;20060;-88
2022/09/24 08:57:56;;;;;;;57.33;27.00;;;13.50;78.10;;;;;;4171577;28;20040;-87
2022/09/24 08:59:57;;;;;;;52.85;27.23;;;13.50;78.00;;;;;;4176328;28;20150;-86
2022/09/24 09:02:25;;;;;;;58.17;27.35;;;13.50;78.00;;;;;;4179722;28;20084;-86
2022/09/24 09:05:05;;;;;;;54.58;27.63;;;13.50;78.30;;;;;;4167270;28;20800;-85
2022/09/24 09:07:22;;;;;;;52.72;26.45;;;13.50;78.20;;;;;;4163905;28;20124;-86
2022/09/24 09:09:27;;;;;;;50.63;26.02;;;13.50;78.10;;;;;;4179697;28;20031;-86
2022/09/24 09:11:31;;;;;;;54.53;26.88;;;13.60;78.00;;;;;;4171126;28;20560;-87
2022/09/24 09:13:39;;;;;;;51.03;25.67;;;13.70;78.20;;;;;;4175708;28;20425;-87
2022/09/24 09:15:48;;;;;;;50.25;26.27;;;13.60;78.10;;;;;;4175303;28;20032;-92
2022/09/24 09:17:56;;;;;;;55.47;27.27;;;13.70;78.30;;;;;;4177050;28;20382;-86
2022/09/24 09:20:00;;;;;;;57.47;29.33;;;13.80;78.40;;;;;;4174130;28;20032;-86
2022/09/24 09:22:13;;;;;;;55.38;27.10;;;13.80;78.50;;;;;;4177839;28;20041;-85
2022/09/24 09:24:26;;;;;;;51.53;26.00;;;13.80;78.40;;;;;;4179028;28;20036;-86
2022/09/24 09:26:26;;;;;;;49.60;26.55;;;13.90;78.30;;;;;;4175677;28;20274;-87
2022/09/24 09:28:28;;;;;;;53.42;27.52;;;13.90;78.10;;;;;;4179451;28;20463;-86
2022/09/24 09:30:42;;;;;;;47.60;25.75;;;14.00;78.20;;;;;;4175507;28;20028;-86
2022/09/24 09:32:42;;;;;;;49.22;25.55;;;14.00;78.10;;;;;;4193496;28;20032;-84
2022/09/24 09:35:07;;;;;;;48.85;24.63;;;14.10;78.10;;;;;;4157208;28;20036;-84
2022/09/24 09:37:19;;;;;;;53.90;26.15;;;14.20;78.20;;;;;;4182774;28;20082;-84
2022/09/24 09:39:36;;;;;;;50.55;26.15;;;14.20;78.30;;;;;;4163219;28;20044;-84
2022/09/24 09:41:48;;;;;;;51.20;25.70;;;14.30;78.30;;;;;;4167630;28;20028;-84
2022/09/24 09:43:48;;;;;;;51.50;26.48;;;14.30;78.10;;;;;;4167140;28;20036;-84
2022/09/24 09:46:06;;;;;;;50.65;26.05;;;14.40;78.00;;;;;;4187624;28;20158;-85
2022/09/24 09:48:11;;;;;;;51.00;25.65;;;14.40;78.50;;;;;;4177337;28;20040;-85
2022/09/24 09:50:31;;;;;;;49.95;26.33;;;14.50;77.70;;;;;;4178582;28;20035;-85
2022/09/24 09:52:37;;;;;;;51.92;25.35;;;14.60;77.40;;;;;;4181646;28;20501;-86
2022/09/24 09:54:40;;;;;;;48.42;24.75;;;14.60;77.30;;;;;;4171473;28;20086;-86
2022/09/24 09:56:44;;;;;;;44.58;24.98;;;14.60;77.00;;;;;;4178164;28;20055;-86
2022/09/24 09:58:52;;;;;;;53.15;26.17;;;14.70;77.00;;;;;;4181255;28;20677;-86
2022/09/24 10:01:14;;;;;;;47.70;25.08;;;14.70;76.90;;;;;;4185237;28;20039;-86
2022/09/24 10:03:31;;;;;;;46.88;24.63;;;14.80;76.70;;;;;;4190741;28;20057;-86
2022/09/24 10:05:32;;;;;;;44.17;23.83;;;14.80;76.60;;;;;;4196536;28;20028;-85
2022/09/24 10:07:43;;;;;;;47.47;25.45;;;14.90;76.40;;;;;;4212133;28;20032;-86
2022/09/24 10:09:45;;;;;;;49.70;25.10;;;14.90;76.00;;;;;;4192289;28;20077;-86
2022/09/24 10:11:46;;;;;;;49.70;23.00;;;15.00;76.00;;;;;;4200820;28;21773;-86
2022/09/24 10:14:01;;;;;;;49.30;25.08;;;15.10;75.90;;;;;;4190475;28;20131;-86
2022/09/24 10:16:04;;;;;;;48.25;26.15;;;15.10;75.70;;;;;;4199647;28;20042;-86
2022/09/24 10:18:05;;;;;;;;;;;15.10;75.60;;;;;;4199959;28;20039;-86
2022/09/24 10:20:27;;;;;;;40.08;22.70;;;15.10;75.40;;;;;;4185933;28;19999;-86
2022/09/24 10:22:29;;;;;;;45.63;24.63;;;15.20;75.10;;;;;;4181311;28;20032;-87
2022/09/24 10:24:30;;;;;;;50.72;25.15;;;15.30;74.90;;;;;;4187532;28;20120;-87
2022/09/24 10:26:39;;;;;;;45.15;24.70;;;15.20;74.50;;;;;;4184091;28;20469;-86
2022/09/24 10:31:13;;;;;;;46.50;23.05;;;15.20;74.10;;;;;;4190951;28;20024;-86
2022/09/24 10:33:13;;;;;;;47.38;24.45;;;15.30;74.10;;;;;;4187374;28;20035;-85
2022/09/24 10:35:26;;;;;;;47.00;25.77;;;15.30;74.00;;;;;;4194193;28;20028;-87
2022/09/24 10:37:28;;;;;;;38.53;22.60;;;15.40;73.60;;;;;;4204380;28;20027;-86
2022/09/24 10:39:29;;;;;;;40.85;23.33;;;15.40;73.60;;;;;;4191348;28;20933;-86
2022/09/24 10:41:32;;;;;;;41.45;22.40;;;15.40;73.40;;;;;;4191137;28;20035;-87
2022/09/24 10:43:33;;;;;;;44.65;22.45;;;15.40;73.10;;;;;;4190383;28;20480;-86
2022/09/24 10:46:00;;;;;;;41.95;23.10;;;15.40;73.00;;;;;;4188172;28;20105;-86
2022/09/24 10:48:22;;;;;;;40.67;23.08;;;15.50;72.90;;;;;;4206619;28;20062;-86
2022/09/24 10:50:33;;;;;;;38.45;21.40;;;15.50;72.50;;;;;;4191352;28;20863;-86
2022/09/24 10:52:50;;;;;;;35.30;21.52;;;15.50;72.30;;;;;;4190189;28;20548;-86
2022/09/24 10:54:59;;;;;;;39.47;23.38;;;15.50;72.00;;;;;;4189846;28;20032;-86
2022/09/24 10:57:20;;;;;;;44.03;24.15;;;15.60;71.90;;;;;;4186155;28;20554;-86